createdAt,value
2023-04-25T00:01:41.566Z,100.00
2023-04-25T00:04:08.243Z,100.00
2023-04-25T00:06:34.503Z,100.00
2023-04-25T00:09:02.292Z,100.00
2023-04-25T00:11:28.754Z,100.00
2023-04-25T00:13:55.158Z,100.00
2023-04-25T00:16:21.654Z,100.00
2023-04-25T00:18:48.007Z,100.00
2023-04-25T00:21:14.411Z,100.00
2023-04-25T00:23:40.922Z,100.00
2023-04-25T00:26:07.433Z,100.00
2023-04-25T00:28:33.832Z,100.00
2023-04-25T00:31:00.250Z,100.00
2023-04-25T00:33:26.652Z,100.00
2023-04-25T00:35:53.163Z,100.00
2023-04-25T00:38:19.616Z,100.00
2023-04-25T00:40:45.995Z,100.00
2023-04-25T00:43:12.436Z,100.00
2023-04-25T00:45:38.868Z,100.00
2023-04-25T00:48:05.491Z,100.00
2023-04-25T00:50:31.885Z,100.00
2023-04-25T00:52:58.402Z,100.00
2023-04-25T00:55:24.781Z,100.00
2023-04-25T00:57:51.162Z,100.00
2023-04-25T01:00:17.674Z,100.00
2023-04-25T01:02:44.330Z,100.00
2023-04-25T01:05:10.530Z,100.00
2023-04-25T01:07:36.942Z,100.00
2023-04-25T01:10:03.429Z,100.00
2023-04-25T01:12:29.758Z,100.00
2023-04-25T01:14:56.218Z,100.00
2023-04-25T01:17:22.714Z,100.00
2023-04-25T01:19:49.095Z,100.00
2023-04-25T01:22:15.693Z,100.00
2023-04-25T01:24:42.145Z,100.00
2023-04-25T01:27:08.543Z,100.00
2023-04-25T01:29:35.033Z,100.00
2023-04-25T01:32:01.571Z,100.00
2023-04-25T01:34:27.957Z,100.00
2023-04-25T01:36:54.386Z,100.00
2023-04-25T01:39:20.858Z,100.00
2023-04-25T01:41:47.300Z,100.00
2023-04-25T01:44:13.665Z,100.00
2023-04-25T01:46:40.251Z,100.00
2023-04-25T01:49:06.621Z,100.00
2023-04-25T01:51:33.272Z,100.00
2023-04-25T01:54:00.983Z,100.00
2023-04-25T01:56:26.168Z,100.00
2023-04-25T01:58:52.568Z,100.00
2023-04-25T02:01:19.063Z,100.00
2023-04-25T02:03:45.536Z,100.00
2023-04-25T02:06:11.992Z,100.00
2023-04-25T02:08:38.354Z,100.00
2023-04-25T02:11:04.836Z,100.00
2023-04-25T02:13:31.389Z,100.00
2023-04-25T02:15:57.955Z,100.00
2023-04-25T02:18:24.231Z,100.00
2023-04-25T02:20:50.767Z,100.00
2023-04-25T02:23:17.255Z,100.00
2023-04-25T02:25:43.660Z,100.00
2023-04-25T02:28:10.070Z,100.00
2023-04-25T02:30:36.518Z,100.00
2023-04-25T02:33:03.024Z,100.00
2023-04-25T02:35:29.384Z,100.00
2023-04-25T02:37:55.910Z,100.00
2023-04-25T02:40:22.341Z,100.00
2023-04-25T02:42:48.811Z,100.00
2023-04-25T02:45:15.259Z,100.00
2023-04-25T02:47:41.875Z,100.00
2023-04-25T02:50:08.237Z,100.00
2023-04-25T02:52:34.731Z,100.00
2023-04-25T02:55:01.244Z,100.00
2023-04-25T02:57:27.614Z,100.00
2023-04-25T02:59:54.134Z,100.00
2023-04-25T03:02:20.685Z,100.00
2023-04-25T03:04:47.125Z,100.00
2023-04-25T03:07:13.470Z,100.00
2023-04-25T03:09:39.848Z,100.00
2023-04-25T03:12:06.388Z,100.00
2023-04-25T03:14:32.692Z,100.00
2023-04-25T03:16:59.213Z,100.00
2023-04-25T03:19:25.814Z,100.00
2023-04-25T03:21:52.345Z,100.00
2023-04-25T03:24:18.714Z,100.00
2023-04-25T03:26:45.146Z,100.00
2023-04-25T03:29:11.485Z,100.00
2023-04-25T03:31:37.978Z,100.00
2023-04-25T03:34:04.372Z,100.00
2023-04-25T03:36:30.842Z,100.00
2023-04-25T03:38:57.285Z,100.00
2023-04-25T03:41:23.765Z,100.00
2023-04-25T03:43:50.387Z,100.00
2023-04-25T03:46:16.743Z,100.00
2023-04-25T03:48:43.298Z,100.00
2023-04-25T03:51:09.682Z,100.00
2023-04-25T03:53:36.171Z,100.00
2023-04-25T03:56:02.717Z,100.00
2023-04-25T03:58:29.231Z,100.00
2023-04-25T04:00:55.595Z,100.00
2023-04-25T04:03:22.540Z,100.00
2023-04-25T04:05:48.582Z,100.00
2023-04-25T04:08:14.949Z,100.00
2023-04-25T04:10:41.548Z,100.00
2023-04-25T04:13:08.002Z,100.00
2023-04-25T04:15:36.301Z,100.00
2023-04-25T04:18:00.959Z,100.00
2023-04-25T04:20:27.407Z,100.00
2023-04-25T04:22:53.940Z,100.00
2023-04-25T04:25:20.397Z,100.00
2023-04-25T04:27:46.826Z,100.00
2023-04-25T04:30:13.370Z,100.00
2023-04-25T04:32:39.968Z,100.00
2023-04-25T04:35:06.283Z,100.00
2023-04-25T04:37:32.699Z,100.00
2023-04-25T04:39:59.111Z,100.00
2023-04-25T04:42:25.502Z,100.00
2023-04-25T04:44:51.908Z,100.00
2023-04-25T04:47:18.317Z,100.00
2023-04-25T04:49:44.764Z,100.00
2023-04-25T04:52:11.451Z,100.00
2023-04-25T04:54:37.877Z,100.00
2023-04-25T04:57:04.348Z,100.00
2023-04-25T04:59:30.789Z,100.00
2023-04-25T05:01:57.366Z,100.00
2023-04-25T05:04:23.956Z,100.00
2023-04-25T05:06:50.131Z,100.00
2023-04-25T05:09:16.617Z,100.00
2023-04-25T05:11:43.084Z,100.00
2023-04-25T05:14:09.548Z,100.00
2023-04-25T05:16:36.186Z,100.00
2023-04-25T05:19:02.477Z,100.00
2023-04-25T05:21:28.918Z,100.00
2023-04-25T05:23:55.466Z,100.00
2023-04-25T05:26:21.894Z,100.00
2023-04-25T05:28:48.455Z,100.00
2023-04-25T05:31:14.916Z,100.00
2023-04-25T05:33:41.256Z,100.00
2023-04-25T05:36:07.877Z,100.00
2023-04-25T05:38:35.958Z,100.00
2023-04-25T05:41:02.467Z,100.00
2023-04-25T05:43:28.841Z,100.00
2023-04-25T05:45:55.455Z,100.00
2023-04-25T05:48:21.885Z,100.00
2023-04-25T05:50:48.281Z,100.00
2023-04-25T05:53:14.832Z,100.00
2023-04-25T05:55:41.307Z,100.00
2023-04-25T05:58:07.953Z,100.00
2023-04-25T06:00:34.268Z,100.00
2023-04-25T06:03:00.856Z,100.00
2023-04-25T06:05:27.375Z,100.00
2023-04-25T06:07:53.551Z,100.00
2023-04-25T06:10:20.038Z,99.56
2023-04-25T06:12:46.444Z,99.53
2023-04-25T06:15:24.207Z,97.32
2023-04-25T06:17:39.429Z,96.77
2023-04-25T06:20:06.980Z,97.06
2023-04-25T06:22:32.257Z,96.69
2023-04-25T06:24:58.691Z,95.95
2023-04-25T06:27:25.091Z,95.43
2023-04-25T06:29:51.509Z,94.97
2023-04-25T06:32:18.258Z,95.59
2023-04-25T06:34:44.830Z,95.89
2023-04-25T06:37:11.209Z,95.73
2023-04-25T06:39:41.112Z,94.22
2023-04-25T06:42:05.220Z,92.26
2023-04-25T06:44:31.707Z,87.86
2023-04-25T06:46:58.617Z,83.58
2023-04-25T06:49:24.923Z,84.57
2023-04-25T06:51:51.469Z,86.15
2023-04-25T06:54:17.991Z,87.73
2023-04-25T06:56:44.468Z,87.91
2023-04-25T06:59:11.325Z,88.46
2023-04-25T07:01:37.755Z,87.64
2023-04-25T07:04:04.524Z,88.01
2023-04-25T07:06:30.617Z,88.35
2023-04-25T07:08:57.457Z,87.98
2023-04-25T07:11:25.025Z,87.00
2023-04-25T07:13:51.495Z,85.95
2023-04-25T07:16:17.910Z,85.66
2023-04-25T07:18:49.145Z,85.72
2023-04-25T07:21:16.751Z,86.57
2023-04-25T07:23:43.187Z,86.60
2023-04-25T07:26:11.763Z,87.14
2023-04-25T07:28:38.206Z,87.59
2023-04-25T07:31:04.592Z,87.65
2023-04-25T07:33:30.983Z,87.16
2023-04-25T07:35:57.646Z,86.28
2023-04-25T07:38:24.049Z,85.34
2023-04-25T07:40:50.456Z,83.19
2023-04-25T07:43:18.075Z,81.35
2023-04-25T07:45:44.610Z,79.16
2023-04-25T07:48:11.023Z,78.39
2023-04-25T07:50:39.974Z,75.08
2023-04-25T07:53:06.409Z,75.27
2023-04-25T07:55:33.440Z,75.84
2023-04-25T07:57:59.811Z,77.13
2023-04-25T08:00:26.235Z,77.01
2023-04-25T08:02:52.730Z,77.24
2023-04-25T08:05:21.332Z,76.87
2023-04-25T08:07:45.522Z,77.19
2023-04-25T08:10:11.932Z,76.68
2023-04-25T08:12:38.360Z,77.04
2023-04-25T08:15:04.818Z,75.41
2023-04-25T08:17:31.225Z,68.88
2023-04-25T08:19:57.732Z,66.15
2023-04-25T08:22:24.185Z,67.28
2023-04-25T08:24:50.622Z,65.68
2023-04-25T08:27:17.107Z,63.82
2023-04-25T08:29:43.707Z,59.19
2023-04-25T08:32:10.117Z,59.97
2023-04-25T08:34:36.591Z,59.88
2023-04-25T08:37:02.967Z,63.43
2023-04-25T08:39:29.417Z,65.99
2023-04-25T08:41:55.852Z,67.50
2023-04-25T08:44:22.232Z,74.67
2023-04-25T08:46:48.952Z,82.49
2023-04-25T08:49:15.307Z,86.55
2023-04-25T08:51:41.741Z,88.55
2023-04-25T08:54:12.868Z,89.79
2023-04-25T08:56:34.556Z,91.96
2023-04-25T08:59:00.994Z,92.18
2023-04-25T09:01:27.500Z,86.85
2023-04-25T09:03:53.946Z,79.65
2023-04-25T09:06:20.368Z,79.13
2023-04-25T09:08:46.746Z,82.13
2023-04-25T09:11:13.545Z,82.70
2023-04-25T09:13:39.980Z,81.56
2023-04-25T09:16:06.409Z,81.25
2023-04-25T09:18:32.870Z,79.05
2023-04-25T09:21:01.074Z,73.44
2023-04-25T09:23:25.729Z,69.67
2023-04-25T09:25:52.302Z,69.64
2023-04-25T09:28:18.675Z,71.51
2023-04-25T09:30:45.844Z,70.78
2023-04-25T09:33:12.380Z,69.95
2023-04-25T09:35:38.784Z,71.90
2023-04-25T09:38:05.190Z,71.86
2023-04-25T09:40:31.555Z,73.21
2023-04-25T09:42:57.976Z,69.01
2023-04-25T09:45:24.380Z,67.12
2023-04-25T09:47:50.876Z,61.53
2023-04-25T09:50:17.305Z,59.25
2023-04-25T09:52:43.696Z,60.38
2023-04-25T09:55:10.070Z,61.24
2023-04-25T09:57:36.556Z,64.20
2023-04-25T10:00:02.977Z,66.11
2023-04-25T10:02:29.473Z,66.50
2023-04-25T10:04:56.140Z,66.24
2023-04-25T10:07:22.264Z,66.71
2023-04-25T10:09:48.884Z,61.78
2023-04-25T10:12:15.532Z,59.93
2023-04-25T10:14:41.902Z,60.17
2023-04-25T10:17:08.337Z,63.22
2023-04-25T10:19:34.771Z,65.19
2023-04-25T10:22:01.150Z,66.98
2023-04-25T10:24:27.554Z,68.09
2023-04-25T10:26:53.927Z,68.90
2023-04-25T10:29:20.352Z,82.81
2023-04-25T10:31:46.751Z,96.28
2023-04-25T10:34:15.257Z,100.00
2023-04-25T10:36:41.824Z,100.00
2023-04-25T10:39:08.248Z,99.49
2023-04-25T10:41:34.617Z,99.00
2023-04-25T10:44:01.055Z,94.89
2023-04-25T10:46:27.546Z,99.31
2023-04-25T10:48:53.890Z,100.00
2023-04-25T10:51:20.329Z,98.37
2023-04-25T10:53:46.905Z,89.02
2023-04-25T10:56:14.489Z,88.15
2023-04-25T10:58:39.889Z,80.26
2023-04-25T11:01:06.317Z,77.38
2023-04-25T11:03:32.905Z,75.41
2023-04-25T11:05:59.148Z,70.25
2023-04-25T11:08:26.983Z,69.16
2023-04-25T11:10:53.404Z,65.67
2023-04-25T11:13:19.772Z,70.09
2023-04-25T11:15:46.292Z,65.73
2023-04-25T11:18:12.705Z,61.58
2023-04-25T11:20:39.107Z,55.41
2023-04-25T11:23:05.679Z,51.09
2023-04-25T11:25:32.240Z,51.85
2023-04-25T11:27:58.455Z,52.73
2023-04-25T11:30:24.857Z,51.65
2023-04-25T11:32:51.384Z,55.66
2023-04-25T11:35:17.805Z,58.21
2023-04-25T11:37:44.254Z,58.03
2023-04-25T11:40:10.718Z,58.89
2023-04-25T11:42:37.226Z,58.89
2023-04-25T11:45:03.646Z,60.02
2023-04-25T11:47:30.143Z,61.40
2023-04-25T11:49:56.471Z,64.17
2023-04-25T11:52:22.848Z,65.98
2023-04-25T11:54:49.628Z,65.33
2023-04-25T11:57:16.005Z,69.54
2023-04-25T11:59:42.391Z,76.06
2023-04-25T12:02:08.812Z,71.51
2023-04-25T12:04:38.100Z,68.95
2023-04-25T12:07:04.166Z,63.30
2023-04-25T12:09:31.272Z,56.95
2023-04-25T12:11:57.734Z,57.71
2023-04-25T12:14:24.148Z,59.93
2023-04-25T12:16:50.569Z,58.46
2023-04-25T12:19:17.425Z,59.29
2023-04-25T12:21:54.531Z,56.82
2023-04-25T12:24:10.197Z,55.70
2023-04-25T12:26:36.617Z,58.18
2023-04-25T12:29:03.083Z,59.26
2023-04-25T12:31:29.522Z,61.38
2023-04-25T12:33:55.897Z,60.87
2023-04-25T12:36:22.270Z,63.09
2023-04-25T12:38:49.189Z,71.99
2023-04-25T12:41:15.310Z,84.13
2023-04-25T12:43:41.673Z,91.43
2023-04-25T12:46:08.252Z,95.12
2023-04-25T12:48:34.565Z,97.12
2023-04-25T12:51:00.995Z,98.80
2023-04-25T12:53:27.449Z,99.75
2023-04-25T12:58:20.248Z,98.87
2023-04-25T13:00:46.713Z,96.50
2023-04-25T13:03:13.326Z,95.53
2023-04-25T13:05:39.496Z,95.74
2023-04-25T13:08:06.018Z,96.00
2023-04-25T13:10:32.539Z,95.73
2023-04-25T13:12:59.014Z,95.62
2023-04-25T13:15:25.555Z,96.67
2023-04-25T13:17:52.014Z,96.30
2023-04-25T13:20:18.367Z,96.42
2023-04-25T13:22:44.842Z,92.79
2023-04-25T13:25:11.234Z,93.86
2023-04-25T13:27:37.635Z,94.52
2023-04-25T13:30:04.101Z,95.31
2023-04-25T13:32:30.511Z,96.55
2023-04-25T13:34:56.929Z,97.08
2023-04-25T13:37:23.356Z,98.27
2023-04-25T13:39:49.746Z,98.62
2023-04-25T13:42:16.190Z,100.00
2023-04-25T13:44:42.569Z,100.00
2023-04-25T13:47:09.204Z,100.00
2023-04-25T13:49:35.427Z,100.00
2023-04-25T13:52:01.758Z,100.00
2023-04-25T13:54:28.194Z,100.00
2023-04-25T13:56:54.569Z,100.00
2023-04-25T13:59:20.994Z,100.00
2023-04-25T14:01:47.743Z,100.00
2023-04-25T14:04:14.212Z,100.00
2023-04-25T14:06:40.641Z,100.00
2023-04-25T14:09:07.177Z,100.00
2023-04-25T14:11:33.658Z,100.00
2023-04-25T14:14:00.107Z,100.00
2023-04-25T14:16:26.630Z,100.00
2023-04-25T14:18:52.972Z,100.00
2023-04-25T14:21:19.470Z,100.00
2023-04-25T14:23:45.796Z,100.00
2023-04-25T14:26:12.207Z,99.45
2023-04-25T14:28:38.862Z,95.36
2023-04-25T14:31:05.331Z,96.66
2023-04-25T14:33:31.708Z,97.32
2023-04-25T14:35:58.252Z,97.03
2023-04-25T14:38:24.666Z,97.62
2023-04-25T14:40:51.108Z,98.24
2023-04-25T14:43:17.931Z,97.30
2023-04-25T14:45:44.388Z,94.53
2023-04-25T14:48:10.954Z,92.48
2023-04-25T14:50:37.277Z,91.70
2023-04-25T14:53:08.262Z,90.69
2023-04-25T14:55:42.324Z,88.74
2023-04-25T14:58:08.779Z,87.66
2023-04-25T15:00:35.407Z,88.81
2023-04-25T15:03:02.093Z,88.80
2023-04-25T15:05:28.287Z,88.93
2023-04-25T15:07:54.709Z,88.49
2023-04-25T15:10:21.124Z,87.11
2023-04-25T15:12:47.982Z,85.89
2023-04-25T15:15:17.564Z,85.47
2023-04-25T15:17:40.426Z,85.08
2023-04-25T15:20:07.096Z,83.99
2023-04-25T15:22:33.553Z,83.22
2023-04-25T15:25:00.033Z,81.30
2023-04-25T15:27:26.608Z,81.52
2023-04-25T15:29:52.977Z,82.59
2023-04-25T15:32:19.507Z,83.18
2023-04-25T15:34:45.853Z,83.46
2023-04-25T15:37:12.282Z,84.02
2023-04-25T15:39:38.715Z,83.93
2023-04-25T15:42:07.256Z,85.72
2023-04-25T15:44:33.632Z,86.63
2023-04-25T15:47:00.040Z,85.91
2023-04-25T15:49:26.752Z,87.68
2023-04-25T15:51:53.150Z,89.01
2023-04-25T15:54:19.596Z,89.77
2023-04-25T15:56:45.987Z,89.27
2023-04-25T15:59:12.362Z,89.57
2023-04-25T16:01:38.889Z,89.94
2023-04-25T16:04:05.508Z,90.09
2023-04-25T16:06:31.801Z,90.12
2023-04-25T16:09:00.202Z,90.69
2023-04-25T16:11:26.663Z,91.21
2023-04-25T16:13:53.340Z,91.36
2023-04-25T16:16:19.617Z,92.45
2023-04-25T16:18:45.910Z,91.21
2023-04-25T16:21:12.379Z,90.88
2023-04-25T16:23:38.740Z,91.34
2023-04-25T16:26:05.215Z,91.77
2023-04-25T16:28:31.597Z,91.34
2023-04-25T16:30:57.977Z,90.44
2023-04-25T16:33:24.507Z,90.54
2023-04-25T16:35:50.874Z,89.95
2023-04-25T16:38:17.348Z,89.41
2023-04-25T16:40:43.751Z,89.29
2023-04-25T16:43:10.177Z,88.49
2023-04-25T16:45:36.549Z,89.93
2023-04-25T16:48:04.001Z,90.67
2023-04-25T16:50:30.416Z,91.24
2023-04-25T16:52:56.987Z,92.04
2023-04-25T16:55:23.365Z,93.13
2023-04-25T16:57:49.743Z,94.02
2023-04-25T17:00:16.118Z,94.71
2023-04-25T17:02:42.784Z,95.56
2023-04-25T17:05:09.034Z,95.74
2023-04-25T17:07:35.403Z,96.19
2023-04-25T17:10:01.860Z,96.82
2023-04-25T17:12:28.310Z,97.51
2023-04-25T17:14:54.802Z,97.82
2023-04-25T17:17:21.090Z,98.25
2023-04-25T17:19:47.546Z,98.17
2023-04-25T17:22:14.031Z,98.38
2023-04-25T17:24:40.841Z,98.93
2023-04-25T17:27:07.182Z,99.39
2023-04-25T17:29:33.659Z,99.89
2023-04-25T17:32:00.143Z,100.00
2023-04-25T17:34:26.592Z,100.00
2023-04-25T17:36:52.988Z,100.00
2023-04-25T17:39:19.826Z,100.00
2023-04-25T17:41:46.672Z,100.00
2023-04-25T17:44:13.030Z,100.00
2023-04-25T17:46:39.692Z,98.87
2023-04-25T17:49:06.906Z,98.33
2023-04-25T17:51:33.313Z,98.22
2023-04-25T17:53:59.711Z,98.85
2023-04-25T17:56:27.790Z,98.90
2023-04-25T17:58:53.377Z,97.97
2023-04-25T18:01:19.617Z,97.78
2023-04-25T18:03:46.156Z,97.12
2023-04-25T18:06:12.684Z,97.20
2023-04-25T18:08:39.138Z,96.70
2023-04-25T18:11:05.568Z,96.17
2023-04-25T18:13:31.997Z,96.03
2023-04-25T18:15:58.434Z,95.84
2023-04-25T18:18:24.860Z,94.81
2023-04-25T18:20:51.327Z,94.39
2023-04-25T18:23:17.825Z,94.60
2023-04-25T18:25:44.203Z,94.04
2023-04-25T18:28:10.879Z,94.14
2023-04-25T18:30:37.312Z,93.74
2023-04-25T18:33:03.715Z,93.45
2023-04-25T18:35:31.420Z,93.72
2023-04-25T18:37:57.967Z,93.97
2023-04-25T18:40:24.368Z,94.16
2023-04-25T18:42:50.775Z,94.03
2023-04-25T18:45:17.197Z,93.83
2023-04-25T18:47:43.705Z,93.90
2023-04-25T18:50:10.133Z,93.96
2023-04-25T18:52:36.667Z,94.04
2023-04-25T18:55:03.272Z,94.16
2023-04-25T18:57:29.679Z,94.42
2023-04-25T18:59:56.195Z,94.06
2023-04-25T19:02:22.697Z,93.88
2023-04-25T19:04:49.061Z,93.75
2023-04-25T19:07:15.496Z,93.99
2023-04-25T19:09:41.820Z,94.27
2023-04-25T19:12:08.249Z,94.36
2023-04-25T19:14:34.877Z,94.03
2023-04-25T19:17:01.328Z,93.87
2023-04-25T19:19:27.766Z,93.80
2023-04-25T19:21:54.205Z,93.50
2023-04-25T19:24:20.605Z,93.22
2023-04-25T19:26:47.051Z,92.85
2023-04-25T19:29:13.924Z,92.92
2023-04-25T19:31:40.319Z,92.74
2023-04-25T19:34:06.696Z,92.45
2023-04-25T19:36:33.534Z,92.54
2023-04-25T19:38:59.946Z,92.16
2023-04-25T19:41:26.377Z,91.78
2023-04-25T19:43:53.184Z,91.48
2023-04-25T19:46:26.856Z,92.21
2023-04-25T19:48:53.241Z,92.74
2023-04-25T19:51:19.653Z,93.17
2023-04-25T19:53:46.066Z,93.26
2023-04-25T19:56:12.452Z,93.51
2023-04-25T19:58:38.870Z,93.97
2023-04-25T20:01:05.338Z,93.70
2023-04-25T20:03:32.109Z,93.54
2023-04-25T20:05:58.357Z,93.35
2023-04-25T20:08:25.951Z,93.02
2023-04-25T20:10:51.261Z,92.79
2023-04-25T20:13:17.864Z,92.93
2023-04-25T20:15:44.295Z,92.39
2023-04-25T20:18:10.729Z,92.23
2023-04-25T20:20:37.156Z,92.03
2023-04-25T20:23:03.549Z,92.18
2023-04-25T20:25:30.069Z,92.20
2023-04-25T20:27:56.552Z,92.15
2023-04-25T20:30:23.096Z,92.45
2023-04-25T20:32:49.991Z,92.08
2023-04-25T20:35:16.350Z,92.08
2023-04-25T20:37:42.812Z,92.30
2023-04-25T20:40:09.275Z,92.18
2023-04-25T20:42:35.747Z,92.16
2023-04-25T20:45:02.163Z,92.21
2023-04-25T20:47:31.157Z,92.41
2023-04-25T20:49:55.024Z,91.97
2023-04-25T20:52:21.435Z,91.89
2023-04-25T20:54:47.907Z,91.77
2023-04-25T20:57:14.430Z,91.52
2023-04-25T20:59:40.936Z,91.48
2023-04-25T21:02:07.317Z,91.82
2023-04-25T21:04:33.731Z,91.79
2023-04-25T21:07:00.406Z,92.01
2023-04-25T21:09:26.690Z,92.68
2023-04-25T21:11:53.117Z,92.71
2023-04-25T21:14:19.519Z,92.47
2023-04-25T21:16:46.031Z,92.44
2023-04-25T21:19:12.434Z,92.36
2023-04-25T21:21:38.865Z,92.42
2023-04-25T21:24:05.351Z,92.70
2023-04-25T21:26:31.749Z,92.65
2023-04-25T21:28:58.189Z,92.83
2023-04-25T21:31:24.593Z,93.05
2023-04-25T21:33:51.034Z,93.09
2023-04-25T21:36:17.521Z,93.85
2023-04-25T21:38:44.030Z,93.93
2023-04-25T21:41:10.409Z,94.04
2023-04-25T21:43:36.841Z,94.48
2023-04-25T21:48:29.773Z,94.77
2023-04-25T21:50:56.218Z,95.44
2023-04-25T21:53:22.718Z,95.77
2023-04-25T21:55:49.154Z,96.18
2023-04-25T21:58:15.680Z,96.38
2023-04-25T22:00:42.079Z,95.97
2023-04-25T22:03:08.599Z,95.97
2023-04-25T22:05:35.010Z,96.34
2023-04-25T22:08:01.473Z,96.69
2023-04-25T22:10:28.000Z,96.77
2023-04-25T22:12:54.439Z,97.34
2023-04-25T22:15:20.913Z,97.54
2023-04-25T22:17:47.474Z,97.58
2023-04-25T22:20:13.852Z,97.73
2023-04-25T22:22:40.302Z,97.80
2023-04-25T22:25:06.810Z,98.25
2023-04-25T22:27:33.272Z,98.96
2023-04-25T22:29:59.679Z,99.02
2023-04-25T22:32:26.208Z,99.65
2023-04-25T22:34:52.655Z,99.86
2023-04-25T22:37:19.083Z,100.00
2023-04-25T22:39:45.617Z,100.00
2023-04-25T22:42:12.087Z,100.00
2023-04-25T22:44:38.475Z,100.00
2023-04-25T22:47:04.911Z,100.00
2023-04-25T22:49:33.756Z,100.00
2023-04-25T22:51:57.796Z,100.00
2023-04-25T22:54:24.289Z,100.00
2023-04-25T22:56:50.640Z,100.00
2023-04-25T22:59:17.114Z,100.00
2023-04-25T23:01:43.689Z,100.00
2023-04-25T23:04:10.305Z,100.00
2023-04-25T23:06:36.753Z,100.00
2023-04-25T23:09:03.274Z,100.00
2023-04-25T23:11:29.764Z,100.00
2023-04-25T23:13:56.280Z,100.00
2023-04-25T23:16:22.725Z,100.00
2023-04-25T23:18:49.423Z,100.00
2023-04-25T23:21:15.812Z,100.00
2023-04-25T23:23:42.220Z,100.00
2023-04-25T23:26:08.619Z,100.00
2023-04-25T23:28:35.274Z,100.00
2023-04-25T23:31:01.731Z,100.00
2023-04-25T23:33:28.094Z,100.00
2023-04-25T23:35:54.567Z,100.00
2023-04-25T23:38:20.931Z,100.00
2023-04-25T23:40:47.341Z,100.00
2023-04-25T23:43:13.763Z,100.00
2023-04-25T23:45:40.252Z,100.00
2023-04-25T23:48:06.822Z,100.00
2023-04-25T23:50:33.601Z,100.00
2023-04-25T23:53:00.083Z,100.00
2023-04-25T23:55:26.509Z,100.00
2023-04-25T23:57:52.943Z,100.00
